createdAt,value
2023-02-13T00:00:22.245Z,54
2023-02-13T00:01:29.120Z,51
2023-02-13T00:02:36.071Z,52
2023-02-13T00:03:43.768Z,53
2023-02-13T00:04:50.562Z,53
2023-02-13T00:05:58.269Z,53
2023-02-13T00:07:05.166Z,56
2023-02-13T00:08:12.005Z,56
2023-02-13T00:09:18.970Z,57
2023-02-13T00:10:25.874Z,58
2023-02-13T00:11:32.840Z,55
2023-02-13T00:12:39.640Z,57
2023-02-13T00:13:47.630Z,58
2023-02-13T00:14:54.552Z,56
2023-02-13T00:16:01.625Z,58
2023-02-13T00:17:09.292Z,58
2023-02-13T00:18:16.077Z,59
2023-02-13T00:19:22.995Z,61
2023-02-13T00:20:30.043Z,59
2023-02-13T00:21:37.835Z,60
2023-02-13T00:22:44.743Z,60
2023-02-13T00:23:51.591Z,58
2023-02-13T00:24:59.592Z,61
2023-02-13T00:26:06.543Z,59
2023-02-13T00:27:13.515Z,56
2023-02-13T00:28:20.447Z,56
2023-02-13T00:29:27.331Z,54
2023-02-13T00:30:35.077Z,53
2023-02-13T00:31:42.187Z,53
2023-02-13T00:32:49.832Z,56
2023-02-13T00:33:56.603Z,54
2023-02-13T00:35:03.543Z,56
2023-02-13T00:36:10.589Z,52
2023-02-13T00:37:23.396Z,54
2023-02-13T00:38:30.257Z,56
2023-02-13T00:39:37.072Z,53
2023-02-13T00:40:43.947Z,52
2023-02-13T00:41:51.013Z,53
2023-02-13T00:42:57.969Z,53
2023-02-13T00:44:05.503Z,53
2023-02-13T00:45:12.392Z,51
2023-02-13T00:46:20.121Z,54
2023-02-13T00:47:26.939Z,49
2023-02-13T00:48:34.160Z,49
2023-02-13T00:49:41.092Z,49
2023-02-13T00:50:48.081Z,50
2023-02-13T00:51:57.834Z,50
2023-02-13T00:53:04.620Z,55
2023-02-13T00:54:11.560Z,51
2023-02-13T00:55:18.418Z,49
2023-02-13T00:56:25.461Z,56
2023-02-13T00:57:32.399Z,55
2023-02-13T00:58:39.486Z,54
2023-02-13T00:59:46.119Z,53
2023-02-13T01:00:53.043Z,56
2023-02-13T01:02:00.125Z,55
2023-02-13T01:03:06.973Z,51
2023-02-13T01:04:13.871Z,55
2023-02-13T01:05:20.773Z,55
2023-02-13T01:06:27.651Z,55
2023-02-13T01:07:34.470Z,50
2023-02-13T01:08:42.188Z,50
2023-02-13T01:09:49.108Z,52
2023-02-13T01:10:56.322Z,54
2023-02-13T01:12:02.894Z,53
2023-02-13T01:13:09.838Z,49
2023-02-13T01:14:16.861Z,51
2023-02-13T01:15:24.527Z,53
2023-02-13T01:16:31.372Z,50
2023-02-13T01:17:38.137Z,54
2023-02-13T01:18:44.992Z,52
2023-02-13T01:19:51.862Z,50
2023-02-13T01:20:59.304Z,50
2023-02-13T01:22:05.756Z,50
2023-02-13T01:23:12.622Z,49
2023-02-13T01:24:19.549Z,50
2023-02-13T01:25:26.549Z,49
2023-02-13T01:26:33.465Z,49
2023-02-13T01:27:40.453Z,47
2023-02-13T01:28:47.296Z,48
2023-02-13T01:29:57.236Z,47
2023-02-13T01:31:04.149Z,48
2023-02-13T01:32:11.863Z,44
2023-02-13T01:33:18.813Z,44
2023-02-13T01:34:28.165Z,44
2023-02-13T01:35:36.066Z,44
2023-02-13T01:36:42.956Z,42
2023-02-13T01:37:49.813Z,46
2023-02-13T01:38:56.634Z,46
2023-02-13T01:40:03.508Z,45
2023-02-13T01:41:10.839Z,44
2023-02-13T01:42:17.843Z,45
2023-02-13T01:43:24.705Z,45
2023-02-13T01:44:41.611Z,43
2023-02-13T01:45:48.489Z,43
2023-02-13T01:46:55.432Z,46
2023-02-13T01:48:05.225Z,43
2023-02-13T01:49:10.041Z,43
2023-02-13T01:50:16.924Z,46
2023-02-13T01:51:28.936Z,45
2023-02-13T01:52:36.712Z,43
2023-02-13T01:53:43.601Z,43
2023-02-13T01:54:56.546Z,43
2023-02-13T01:56:04.227Z,44
2023-02-13T01:57:18.990Z,42
2023-02-13T01:58:25.833Z,44
2023-02-13T01:59:32.691Z,42
2023-02-13T02:00:45.179Z,42
2023-02-13T02:01:54.907Z,40
2023-02-13T02:03:01.507Z,42
2023-02-13T02:04:08.402Z,42
2023-02-13T02:05:20.376Z,43
2023-02-13T02:06:28.086Z,42
2023-02-13T02:07:38.048Z,42
2023-02-13T02:08:44.878Z,40
2023-02-13T02:09:51.891Z,41
2023-02-13T02:10:58.942Z,39
2023-02-13T02:12:05.596Z,40
2023-02-13T02:13:18.304Z,37
2023-02-13T02:14:25.181Z,36
2023-02-13T02:15:32.115Z,38
2023-02-13T02:16:39.071Z,38
2023-02-13T02:17:45.962Z,38
2023-02-13T02:18:52.791Z,36
2023-02-13T02:20:00.710Z,35
2023-02-13T02:21:17.657Z,37
2023-02-13T02:22:30.291Z,37
2023-02-13T02:23:37.195Z,38
2023-02-13T02:24:54.256Z,38
2023-02-13T02:26:11.172Z,37
2023-02-13T02:27:25.833Z,34
2023-02-13T02:28:38.845Z,36
2023-02-13T02:29:56.678Z,36
2023-02-13T02:31:13.849Z,39
2023-02-13T02:32:23.479Z,39
2023-02-13T02:33:35.416Z,39
2023-02-13T02:34:45.066Z,39
2023-02-13T02:36:02.173Z,41
2023-02-13T02:37:15.009Z,40
2023-02-13T02:38:28.073Z,38
2023-02-13T02:39:45.146Z,38
2023-02-13T02:40:57.611Z,40
2023-02-13T02:42:12.090Z,38
2023-02-13T02:43:29.335Z,39
2023-02-13T02:44:44.005Z,39
2023-02-13T02:45:54.564Z,40
2023-02-13T02:47:06.802Z,40
2023-02-13T02:48:23.725Z,38
2023-02-13T02:49:35.706Z,39
2023-02-13T02:50:47.580Z,40
2023-02-13T02:52:04.592Z,40
2023-02-13T02:53:11.490Z,37
2023-02-13T02:54:28.453Z,40
2023-02-13T02:55:46.456Z,39
2023-02-13T02:56:53.788Z,39
2023-02-13T02:58:00.625Z,40
2023-02-13T02:59:20.095Z,37
2023-02-13T03:00:32.332Z,37
2023-02-13T03:01:44.186Z,37
2023-02-13T03:02:56.260Z,35
2023-02-13T03:04:08.209Z,35
2023-02-13T03:05:25.819Z,36
2023-02-13T03:06:37.761Z,37
2023-02-13T03:07:52.635Z,33
2023-02-13T03:08:59.499Z,36
2023-02-13T03:10:11.456Z,36
2023-02-13T03:11:26.255Z,37
2023-02-13T03:12:38.169Z,37
2023-02-13T03:13:51.062Z,35
2023-02-13T03:14:58.924Z,35
2023-02-13T03:16:05.804Z,34
2023-02-13T03:17:17.593Z,35
2023-02-13T03:18:29.608Z,34
2023-02-13T03:19:44.526Z,35
2023-02-13T03:21:04.273Z,33
2023-02-13T03:22:19.099Z,36
2023-02-13T03:23:33.960Z,34
2023-02-13T03:24:46.762Z,34
2023-02-13T03:26:02.650Z,34
2023-02-13T03:27:17.375Z,34
2023-02-13T03:28:27.506Z,34
2023-02-13T03:29:47.470Z,33
2023-02-13T03:30:59.920Z,32
2023-02-13T03:32:11.463Z,32
2023-02-13T03:33:21.166Z,34
2023-02-13T03:34:32.991Z,31
2023-02-13T03:35:44.931Z,32
2023-02-13T03:37:02.051Z,32
2023-02-13T03:38:13.908Z,33
2023-02-13T03:39:25.411Z,31
2023-02-13T03:40:42.538Z,30
2023-02-13T03:41:54.542Z,30
2023-02-13T03:43:05.158Z,31
2023-02-13T03:44:12.213Z,28
2023-02-13T03:45:19.038Z,31
2023-02-13T03:46:31.362Z,28
2023-02-13T03:47:38.397Z,29
2023-02-13T03:48:45.230Z,31
2023-02-13T03:49:57.200Z,30
2023-02-13T03:51:09.775Z,28
2023-02-13T03:52:16.705Z,30
2023-02-13T03:53:23.518Z,29
2023-02-13T03:54:30.418Z,29
2023-02-13T03:55:45.050Z,29
2023-02-13T03:56:57.829Z,29
2023-02-13T03:58:09.749Z,29
2023-02-13T03:59:24.589Z,29
2023-02-13T04:00:34.134Z,29
2023-02-13T04:01:43.709Z,30
2023-02-13T04:02:53.433Z,27
2023-02-13T04:04:00.301Z,28
2023-02-13T04:05:13.908Z,29
2023-02-13T04:06:19.036Z,28
2023-02-13T04:07:25.949Z,28
2023-02-13T04:08:32.850Z,28
2023-02-13T04:09:39.809Z,28
2023-02-13T04:10:46.764Z,30
2023-02-13T04:11:56.381Z,29
2023-02-13T04:13:08.417Z,29
2023-02-13T04:14:15.240Z,30
2023-02-13T04:15:23.918Z,28
2023-02-13T04:16:34.079Z,29
2023-02-13T04:17:43.605Z,27
2023-02-13T04:18:53.493Z,27
2023-02-13T04:20:00.341Z,27
2023-02-13T04:21:07.520Z,27
2023-02-13T04:22:14.305Z,26
2023-02-13T04:23:21.301Z,26
2023-02-13T04:24:28.141Z,26
2023-02-13T04:25:35.025Z,25
2023-02-13T04:26:41.924Z,26
2023-02-13T04:27:48.854Z,25
2023-02-13T04:28:56.476Z,26
2023-02-13T04:30:03.325Z,27
2023-02-13T04:31:10.732Z,27
2023-02-13T04:32:18.234Z,27
2023-02-13T04:33:25.157Z,25
2023-02-13T04:34:32.808Z,27
2023-02-13T04:35:39.762Z,27
2023-02-13T04:36:46.655Z,26
2023-02-13T04:37:53.469Z,28
2023-02-13T04:39:00.386Z,29
2023-02-13T04:40:07.239Z,27
2023-02-13T04:41:14.544Z,28
2023-02-13T04:42:21.406Z,31
2023-02-13T04:43:28.248Z,29
2023-02-13T04:44:35.148Z,31
2023-02-13T04:45:42.103Z,30
2023-02-13T04:46:51.715Z,30
2023-02-13T04:47:58.540Z,30
2023-02-13T04:49:05.496Z,32
2023-02-13T04:50:14.035Z,31
2023-02-13T04:51:20.988Z,31
2023-02-13T04:52:27.792Z,29
2023-02-13T04:53:34.738Z,27
2023-02-13T04:54:42.543Z,28
2023-02-13T04:55:49.543Z,24
2023-02-13T04:56:56.624Z,25
2023-02-13T04:58:03.479Z,23
2023-02-13T04:59:10.522Z,24
2023-02-13T05:00:17.677Z,23
2023-02-13T05:01:24.743Z,24
2023-02-13T05:02:31.849Z,24
2023-02-13T05:03:38.668Z,25
2023-02-13T05:04:45.730Z,26
2023-02-13T05:05:52.783Z,26
2023-02-13T05:06:59.615Z,26
2023-02-13T05:08:06.564Z,27
2023-02-13T05:09:13.324Z,29
2023-02-13T05:10:20.263Z,29
2023-02-13T05:11:28.005Z,30
2023-02-13T05:12:34.915Z,30
2023-02-13T05:13:41.774Z,32
2023-02-13T05:14:48.826Z,31
2023-02-13T05:15:55.867Z,32
2023-02-13T05:17:02.855Z,34
2023-02-13T05:18:10.700Z,33
2023-02-13T05:19:17.797Z,30
2023-02-13T05:20:24.739Z,34
2023-02-13T05:21:31.742Z,33
2023-02-13T05:22:43.703Z,34
2023-02-13T05:23:55.584Z,33
2023-02-13T05:25:02.535Z,35
2023-02-13T05:26:09.596Z,34
2023-02-13T05:27:16.492Z,34
2023-02-13T05:28:23.447Z,35
2023-02-13T05:29:35.311Z,34
2023-02-13T05:30:42.239Z,32
2023-02-13T05:31:50.018Z,34
2023-02-13T05:32:56.801Z,35
2023-02-13T05:34:03.783Z,32
2023-02-13T05:35:10.719Z,34
2023-02-13T05:36:17.664Z,35
2023-02-13T05:37:24.585Z,34
2023-02-13T05:38:32.343Z,33
2023-02-13T05:39:39.218Z,33
2023-02-13T05:40:46.143Z,35
2023-02-13T05:41:53.023Z,35
2023-02-13T05:43:00.614Z,34
2023-02-13T05:44:07.599Z,35
2023-02-13T05:45:14.486Z,34
2023-02-13T05:46:21.550Z,34
2023-02-13T05:47:28.315Z,33
2023-02-13T05:48:35.209Z,33
2023-02-13T05:49:42.123Z,32
2023-02-13T05:50:49.005Z,33
2023-02-13T05:51:55.895Z,33
2023-02-13T05:53:02.797Z,36
2023-02-13T05:54:09.714Z,37
2023-02-13T05:55:16.742Z,35
2023-02-13T05:56:23.633Z,34
2023-02-13T05:57:30.608Z,35
2023-02-13T05:58:37.366Z,36
2023-02-13T05:59:44.268Z,35
2023-02-13T06:00:51.194Z,37
2023-02-13T06:02:04.630Z,36
2023-02-13T06:03:11.526Z,34
2023-02-13T06:04:19.464Z,36
2023-02-13T06:05:26.241Z,36
2023-02-13T06:06:33.211Z,37
2023-02-13T06:07:40.165Z,35
2023-02-13T06:08:48.058Z,34
2023-02-13T06:09:54.922Z,32
2023-02-13T06:11:02.145Z,34
2023-02-13T06:12:08.814Z,31
2023-02-13T06:13:15.768Z,30
2023-02-13T06:14:22.687Z,32
2023-02-13T06:15:29.771Z,32
2023-02-13T06:16:36.620Z,33
2023-02-13T06:17:43.510Z,32
2023-02-13T06:18:50.429Z,33
2023-02-13T06:19:57.358Z,33
2023-02-13T06:21:04.211Z,32
2023-02-13T06:22:11.074Z,30
2023-02-13T06:23:17.839Z,30
2023-02-13T06:24:25.691Z,29
2023-02-13T06:25:33.615Z,30
2023-02-13T06:26:40.528Z,32
2023-02-13T06:27:47.392Z,31
2023-02-13T06:28:54.305Z,31
2023-02-13T06:30:01.360Z,30
2023-02-13T06:31:10.154Z,29
2023-02-13T06:32:16.876Z,29
2023-02-13T06:33:23.885Z,29
2023-02-13T06:34:30.730Z,28
2023-02-13T06:35:37.825Z,29
2023-02-13T06:36:44.650Z,30
2023-02-13T06:37:51.623Z,29
2023-02-13T06:38:58.502Z,26
2023-02-13T06:40:06.289Z,28
2023-02-13T06:41:14.348Z,28
2023-02-13T06:42:21.165Z,28
2023-02-13T06:43:28.868Z,29
2023-02-13T06:44:35.812Z,30
2023-02-13T06:45:40.670Z,30
2023-02-13T06:46:47.627Z,29
2023-02-13T06:47:56.603Z,29
2023-02-13T06:49:03.484Z,30
2023-02-13T06:50:11.115Z,30
2023-02-13T06:51:17.922Z,29
2023-02-13T06:52:24.866Z,29
2023-02-13T06:53:31.686Z,28
2023-02-13T06:54:47.069Z,29
2023-02-13T06:55:48.705Z,30
2023-02-13T06:56:55.893Z,31
2023-02-13T06:58:02.828Z,30
2023-02-13T06:59:09.782Z,27
2023-02-13T07:00:17.428Z,30
2023-02-13T07:01:24.410Z,31
2023-02-13T07:02:31.309Z,30
2023-02-13T07:03:38.196Z,27
2023-02-13T07:04:45.063Z,30
2023-02-13T07:05:52.068Z,30
2023-02-13T07:06:58.900Z,30
2023-02-13T07:08:06.570Z,28
2023-02-13T07:09:14.292Z,29
2023-02-13T07:10:21.130Z,30
2023-02-13T07:11:27.973Z,28
2023-02-13T07:12:34.887Z,29
2023-02-13T07:13:42.592Z,30
2023-02-13T07:14:50.958Z,30
2023-02-13T07:15:57.881Z,30
2023-02-13T07:17:04.618Z,30
2023-02-13T07:18:11.469Z,29
2023-02-13T07:19:18.302Z,30
2023-02-13T07:20:25.161Z,31
2023-02-13T07:21:32.153Z,30
2023-02-13T07:22:38.950Z,31
2023-02-13T07:23:45.841Z,33
2023-02-13T07:24:52.791Z,30
2023-02-13T07:25:59.750Z,32
2023-02-13T07:27:06.744Z,31
2023-02-13T07:28:13.804Z,30
2023-02-13T07:29:20.534Z,28
2023-02-13T07:30:27.599Z,29
2023-02-13T07:31:34.449Z,30
2023-02-13T07:32:41.274Z,31
2023-02-13T07:33:48.182Z,30
2023-02-13T07:35:01.902Z,32
2023-02-13T07:36:01.899Z,33
2023-02-13T07:37:08.982Z,31
2023-02-13T07:38:15.845Z,32
2023-02-13T07:39:24.483Z,33
2023-02-13T07:40:33.672Z,32
2023-02-13T07:41:40.489Z,31
2023-02-13T07:42:48.112Z,33
2023-02-13T07:43:55.256Z,34
2023-02-13T07:45:02.098Z,36
2023-02-13T07:46:09.030Z,36
2023-02-13T07:47:19.733Z,36
2023-02-13T07:48:24.487Z,33
2023-02-13T07:49:31.294Z,35
2023-02-13T07:50:38.255Z,34
2023-02-13T07:51:45.230Z,32
2023-02-13T07:52:52.075Z,34
2023-02-13T07:53:58.986Z,30
2023-02-13T07:55:05.799Z,31
2023-02-13T07:56:12.927Z,31
2023-02-13T07:57:19.798Z,31
2023-02-13T07:58:27.377Z,32
2023-02-13T07:59:34.249Z,32
2023-02-13T08:00:41.078Z,31
2023-02-13T08:01:47.991Z,32
2023-02-13T08:02:55.605Z,31
2023-02-13T08:04:02.578Z,31
2023-02-13T08:05:09.440Z,31
2023-02-13T08:06:16.267Z,33
2023-02-13T08:07:23.126Z,33
2023-02-13T08:08:30.082Z,34
2023-02-13T08:09:38.882Z,37
2023-02-13T08:10:49.043Z,33
2023-02-13T08:12:01.096Z,33
2023-02-13T08:13:08.219Z,32
2023-02-13T08:14:15.087Z,32
2023-02-13T08:15:22.010Z,32
2023-02-13T08:16:28.866Z,32
2023-02-13T08:17:35.689Z,34
2023-02-13T08:18:44.239Z,31
2023-02-13T08:19:51.172Z,33
2023-02-13T08:20:57.991Z,32
2023-02-13T08:22:04.777Z,31
2023-02-13T08:23:11.709Z,30
2023-02-13T08:24:18.618Z,32
2023-02-13T08:25:25.928Z,31
2023-02-13T08:26:32.850Z,31
2023-02-13T08:27:40.740Z,31
2023-02-13T08:28:47.566Z,32
2023-02-13T08:29:54.458Z,31
2023-02-13T08:31:01.485Z,29
2023-02-13T08:32:08.376Z,30
2023-02-13T08:33:15.237Z,30
2023-02-13T08:34:22.170Z,29
2023-02-13T08:35:29.044Z,30
2023-02-13T08:36:36.058Z,30
2023-02-13T08:37:42.969Z,31
2023-02-13T08:38:49.805Z,28
2023-02-13T08:39:56.745Z,31
2023-02-13T08:41:03.593Z,33
2023-02-13T08:42:12.949Z,31
2023-02-13T08:43:17.321Z,31
2023-02-13T08:44:24.150Z,30
2023-02-13T08:45:31.090Z,33
2023-02-13T08:46:38.075Z,31
2023-02-13T08:47:44.914Z,31
2023-02-13T08:48:51.714Z,30
2023-02-13T08:49:58.566Z,32
2023-02-13T08:51:05.410Z,30
2023-02-13T08:52:15.053Z,30
2023-02-13T08:53:22.016Z,30
2023-02-13T08:54:28.960Z,32
2023-02-13T08:55:35.833Z,31
2023-02-13T08:56:42.597Z,31
2023-02-13T08:57:49.558Z,32
2023-02-13T08:58:56.454Z,29
2023-02-13T09:00:03.601Z,30
2023-02-13T09:01:10.823Z,32
2023-02-13T09:02:18.625Z,31
2023-02-13T09:03:25.587Z,31
2023-02-13T09:04:32.487Z,27
2023-02-13T09:05:40.296Z,28
2023-02-13T09:06:47.186Z,28
2023-02-13T09:07:54.044Z,31
2023-02-13T09:09:03.531Z,29
2023-02-13T09:10:10.356Z,30
2023-02-13T09:11:17.203Z,29
2023-02-13T09:12:24.831Z,32
2023-02-13T09:13:31.699Z,31
2023-02-13T09:14:38.603Z,33
2023-02-13T09:15:45.475Z,34
2023-02-13T09:16:52.338Z,33
2023-02-13T09:17:59.234Z,33
2023-02-13T09:19:06.168Z,33
2023-02-13T09:20:13.071Z,30
2023-02-13T09:21:20.062Z,31
2023-02-13T09:22:26.908Z,31
2023-02-13T09:23:34.114Z,30
2023-02-13T09:24:41.060Z,32
2023-02-13T09:25:47.964Z,34
2023-02-13T09:26:54.738Z,32
2023-02-13T09:28:01.612Z,33
2023-02-13T09:29:08.434Z,32
2023-02-13T09:30:15.290Z,31
2023-02-13T09:31:22.323Z,34
2023-02-13T09:32:31.951Z,31
2023-02-13T09:33:39.073Z,29
2023-02-13T09:34:45.991Z,27
2023-02-13T09:35:52.929Z,27
2023-02-13T09:36:59.932Z,27
2023-02-13T09:38:06.758Z,28
2023-02-13T09:39:13.581Z,27
2023-02-13T09:40:20.639Z,27
2023-02-13T09:41:27.653Z,28
2023-02-13T09:42:35.327Z,26
2023-02-13T09:43:42.192Z,28
2023-02-13T09:44:54.184Z,29
2023-02-13T09:46:04.100Z,28
2023-02-13T09:47:10.973Z,27
2023-02-13T09:48:25.595Z,26
2023-02-13T09:49:32.488Z,28
2023-02-13T09:50:39.331Z,28
2023-02-13T09:51:46.304Z,25
2023-02-13T09:52:53.219Z,28
2023-02-13T09:54:00.164Z,27
2023-02-13T09:55:09.872Z,28
2023-02-13T09:56:16.806Z,28
2023-02-13T09:57:26.313Z,29
2023-02-13T09:58:38.288Z,30
2023-02-13T09:59:47.972Z,25
2023-02-13T10:00:59.968Z,26
2023-02-13T10:02:06.913Z,28
2023-02-13T10:03:21.969Z,29
2023-02-13T10:04:34.002Z,27
2023-02-13T10:05:50.991Z,22
2023-02-13T10:07:02.834Z,23
2023-02-13T10:08:09.848Z,23
2023-02-13T10:09:26.814Z,20
2023-02-13T10:10:36.432Z,22
2023-02-13T10:11:47.080Z,20
2023-02-13T10:13:01.984Z,20
2023-02-13T10:14:11.454Z,20
2023-02-13T10:15:18.301Z,21
2023-02-13T10:16:35.244Z,19
2023-02-13T10:17:44.824Z,20
2023-02-13T10:18:51.619Z,20
2023-02-13T10:20:06.262Z,21
2023-02-13T10:21:23.289Z,18
2023-02-13T10:22:30.152Z,17
2023-02-13T10:23:36.942Z,17
2023-02-13T10:24:48.963Z,17
2023-02-13T10:26:01.178Z,18
2023-02-13T10:27:07.845Z,19
2023-02-13T10:28:22.590Z,19
2023-02-13T10:29:39.612Z,20
2023-02-13T10:30:51.662Z,19
2023-02-13T10:31:58.500Z,17
2023-02-13T10:33:05.187Z,17
2023-02-13T10:34:17.071Z,16
2023-02-13T10:35:23.854Z,17
2023-02-13T10:36:30.784Z,17
2023-02-13T10:37:38.480Z,22
2023-02-13T10:38:45.471Z,23
2023-02-13T10:39:59.916Z,23
2023-02-13T10:41:06.899Z,24
2023-02-13T10:42:23.863Z,22
2023-02-13T10:43:38.448Z,22
2023-02-13T10:44:55.498Z,20
2023-02-13T10:46:07.423Z,20
2023-02-13T10:47:22.432Z,19
2023-02-13T10:48:34.408Z,20
2023-02-13T10:49:49.288Z,18
2023-02-13T10:51:01.224Z,17
2023-02-13T10:52:18.284Z,17
2023-02-13T10:53:30.204Z,16
2023-02-13T10:54:42.059Z,16
2023-02-13T10:55:59.337Z,16
2023-02-13T10:57:13.644Z,15
2023-02-13T10:58:24.352Z,16
2023-02-13T10:59:36.220Z,18
2023-02-13T11:00:43.575Z,17
2023-02-13T11:02:01.658Z,14
2023-02-13T11:03:13.529Z,16
2023-02-13T11:04:23.415Z,15
2023-02-13T11:05:31.056Z,15
2023-02-13T11:06:41.624Z,15
2023-02-13T11:07:53.578Z,16
2023-02-13T11:09:00.415Z,17
2023-02-13T11:10:07.291Z,16
2023-02-13T11:11:19.089Z,16
2023-02-13T11:12:31.034Z,16
2023-02-13T11:13:37.906Z,15
2023-02-13T11:14:44.811Z,13
2023-02-13T11:15:57.079Z,15
2023-02-13T11:17:09.608Z,16
2023-02-13T11:18:18.509Z,16
2023-02-13T11:19:23.421Z,12
2023-02-13T11:20:33.083Z,11
2023-02-13T11:21:39.865Z,10
2023-02-13T11:22:46.771Z,11
2023-02-13T11:23:54.448Z,10
2023-02-13T11:25:01.273Z,11
2023-02-13T11:26:15.830Z,10
2023-02-13T11:27:30.479Z,10
2023-02-13T11:28:37.473Z,12
2023-02-13T11:29:49.343Z,14
2023-02-13T11:30:59.356Z,13
2023-02-13T11:32:06.232Z,12
2023-02-13T11:33:18.062Z,13
2023-02-13T11:34:27.970Z,15
2023-02-13T11:35:34.805Z,15
2023-02-13T11:36:41.731Z,15
2023-02-13T11:37:49.598Z,15
2023-02-13T11:39:06.572Z,15
2023-02-13T11:40:18.420Z,15
2023-02-13T11:41:25.401Z,15
2023-02-13T11:42:32.304Z,15
2023-02-13T11:43:39.197Z,15
2023-02-13T11:44:51.806Z,13
2023-02-13T11:45:58.930Z,15
2023-02-13T11:47:11.072Z,15
2023-02-13T11:48:17.969Z,18
2023-02-13T11:49:24.819Z,21
2023-02-13T11:50:34.516Z,21
2023-02-13T11:51:41.433Z,21
2023-02-13T11:52:56.344Z,28
2023-02-13T11:54:06.242Z,21
2023-02-13T11:55:23.265Z,25
2023-02-13T11:56:33.301Z,28
2023-02-13T11:57:50.332Z,23
2023-02-13T11:59:02.458Z,20
2023-02-13T12:00:09.186Z,20
2023-02-13T12:01:27.157Z,21
2023-02-13T12:02:33.956Z,20
2023-02-13T12:03:48.596Z,16
2023-02-13T12:05:02.556Z,15
2023-02-13T12:06:14.487Z,17
2023-02-13T12:07:21.408Z,17
2023-02-13T12:08:31.090Z,24
2023-02-13T12:09:37.965Z,24
2023-02-13T12:10:44.817Z,20
2023-02-13T12:11:51.863Z,24
2023-02-13T12:12:58.638Z,26
2023-02-13T12:14:05.442Z,26
2023-02-13T12:15:15.286Z,19
2023-02-13T12:16:28.241Z,21
2023-02-13T12:17:35.006Z,24
2023-02-13T12:18:41.852Z,23
2023-02-13T12:19:49.636Z,18
2023-02-13T12:20:56.832Z,20
2023-02-13T12:22:06.514Z,19
2023-02-13T12:23:16.389Z,20
2023-02-13T12:24:23.358Z,16
2023-02-13T12:25:35.430Z,16
2023-02-13T12:26:50.187Z,18
2023-02-13T12:28:02.186Z,17
2023-02-13T12:29:14.010Z,18
2023-02-13T12:30:28.734Z,18
2023-02-13T12:31:43.538Z,18
2023-02-13T12:32:56.271Z,17
2023-02-13T12:34:11.055Z,16
2023-02-13T12:35:17.957Z,17
2023-02-13T12:36:30.792Z,17
2023-02-13T12:37:37.694Z,18
2023-02-13T12:38:49.621Z,19
2023-02-13T12:39:56.501Z,17
2023-02-13T12:41:11.076Z,18
2023-02-13T12:42:22.966Z,21
2023-02-13T12:43:32.871Z,21
2023-02-13T12:44:44.689Z,18
2023-02-13T12:45:56.702Z,21
2023-02-13T12:47:11.213Z,18
2023-02-13T12:48:21.102Z,22
2023-02-13T12:49:38.089Z,19
2023-02-13T12:50:52.799Z,17
2023-02-13T12:52:04.751Z,18
2023-02-13T12:53:21.690Z,19
2023-02-13T12:54:40.517Z,19
2023-02-13T12:55:57.545Z,18
2023-02-13T12:57:10.525Z,18
2023-02-13T12:58:20.506Z,17
2023-02-13T12:59:32.469Z,17
2023-02-13T13:00:47.095Z,17
2023-02-13T13:02:04.094Z,16
2023-02-13T13:03:16.622Z,16
2023-02-13T13:04:26.546Z,15
2023-02-13T13:05:45.188Z,15
2023-02-13T13:06:55.814Z,15
2023-02-13T13:08:02.664Z,16
2023-02-13T13:09:17.297Z,15
2023-02-13T13:10:34.296Z,13
2023-02-13T13:11:49.312Z,13
2023-02-13T13:13:02.000Z,14
2023-02-13T13:14:15.789Z,15
2023-02-13T13:15:23.975Z,14
2023-02-13T13:16:38.055Z,14
2023-02-13T13:17:50.808Z,14
2023-02-13T13:19:07.836Z,16
2023-02-13T13:20:24.839Z,16
2023-02-13T13:21:43.165Z,16
2023-02-13T13:22:57.397Z,22
2023-02-13T13:24:15.228Z,19
2023-02-13T13:25:32.291Z,24
2023-02-13T13:26:39.159Z,17
2023-02-13T13:27:46.082Z,13
2023-02-13T13:28:53.025Z,14
2023-02-13T13:29:59.938Z,14
2023-02-13T13:31:17.056Z,13
2023-02-13T13:32:23.696Z,13
2023-02-13T13:33:30.575Z,15
2023-02-13T13:34:37.394Z,14
2023-02-13T13:35:44.234Z,14
2023-02-13T13:36:59.928Z,15
2023-02-13T13:38:07.620Z,14
2023-02-13T13:39:20.114Z,14
2023-02-13T13:40:37.996Z,14
2023-02-13T13:41:44.874Z,14
2023-02-13T13:42:54.453Z,14
2023-02-13T13:44:06.436Z,14
2023-02-13T13:45:18.310Z,15
2023-02-13T13:46:30.987Z,15
2023-02-13T13:47:40.583Z,14
2023-02-13T13:48:55.375Z,14
2023-02-13T13:50:12.336Z,13
2023-02-13T13:51:24.316Z,14
2023-02-13T13:52:32.798Z,14
2023-02-13T13:53:42.204Z,14
2023-02-13T13:54:59.190Z,15
2023-02-13T13:56:06.903Z,15
2023-02-13T13:57:13.924Z,15
2023-02-13T13:58:24.786Z,15
2023-02-13T13:59:39.475Z,15
2023-02-13T14:00:49.137Z,16
2023-02-13T14:02:06.231Z,17
2023-02-13T14:03:21.117Z,16
2023-02-13T14:04:28.005Z,16
2023-02-13T14:05:34.913Z,16
2023-02-13T14:06:51.945Z,17
2023-02-13T14:08:01.588Z,15
2023-02-13T14:09:10.893Z,14
2023-02-13T14:10:27.977Z,21
2023-02-13T14:11:35.686Z,108
2023-02-13T14:12:42.569Z,93
2023-02-13T14:13:52.000Z,120
2023-02-13T14:14:58.825Z,29
2023-02-13T14:16:06.055Z,85
2023-02-13T14:17:12.915Z,79
2023-02-13T14:18:19.754Z,83
2023-02-13T14:19:27.466Z,92
2023-02-13T14:20:39.379Z,71
2023-02-13T14:21:51.349Z,62
2023-02-13T14:22:58.938Z,37
2023-02-13T14:24:13.494Z,18
2023-02-13T14:25:20.477Z,16
2023-02-13T14:26:27.401Z,16
2023-02-13T14:27:36.881Z,16
2023-02-13T14:28:43.745Z,26
2023-02-13T14:29:53.477Z,18
2023-02-13T14:31:00.652Z,16
2023-02-13T14:32:07.487Z,15
2023-02-13T14:33:19.581Z,17
2023-02-13T14:34:27.496Z,15
2023-02-13T14:35:35.244Z,15
2023-02-13T14:36:45.989Z,16
2023-02-13T14:37:52.983Z,13
2023-02-13T14:39:02.823Z,13
2023-02-13T14:40:14.779Z,13
2023-02-13T14:41:21.728Z,11
2023-02-13T14:42:38.748Z,12
2023-02-13T14:43:49.067Z,12
2023-02-13T14:44:55.887Z,12
2023-02-13T14:46:03.033Z,10
2023-02-13T14:47:12.594Z,10
2023-02-13T14:48:24.562Z,11
2023-02-13T14:49:36.331Z,11
2023-02-13T14:50:43.238Z,10
2023-02-13T14:51:50.289Z,10
2023-02-13T14:52:58.828Z,10
2023-02-13T14:54:05.830Z,12
2023-02-13T14:55:12.996Z,13
2023-02-13T14:56:24.745Z,16
2023-02-13T14:57:32.660Z,13
2023-02-13T14:58:39.509Z,15
2023-02-13T14:59:46.355Z,14
2023-02-13T15:00:53.363Z,16
2023-02-13T15:02:06.021Z,13
2023-02-13T15:03:23.146Z,10
2023-02-13T15:04:40.271Z,8
2023-02-13T15:05:52.296Z,9
2023-02-13T15:07:04.253Z,7
2023-02-13T15:08:11.174Z,8
2023-02-13T15:09:19.656Z,7
2023-02-13T15:10:30.394Z,8
2023-02-13T15:11:43.249Z,10
2023-02-13T15:12:50.034Z,8
2023-02-13T15:13:59.609Z,9
2023-02-13T15:15:16.626Z,11
2023-02-13T15:16:27.488Z,26
2023-02-13T15:17:34.421Z,17
2023-02-13T15:18:43.958Z,52
2023-02-13T15:19:51.713Z,40
2023-02-13T15:20:58.846Z,34
2023-02-13T15:22:05.390Z,18
2023-02-13T15:23:12.243Z,41
2023-02-13T15:24:24.307Z,81
2023-02-13T15:25:33.953Z,37
2023-02-13T15:26:43.492Z,23
2023-02-13T15:27:56.527Z,52
2023-02-13T15:29:03.663Z,89
2023-02-13T15:30:18.127Z,74
2023-02-13T15:31:27.995Z,67
2023-02-13T15:32:34.723Z,93
2023-02-13T15:33:43.332Z,85
2023-02-13T15:34:52.818Z,89
2023-02-13T15:35:59.716Z,29
2023-02-13T15:37:06.692Z,33
2023-02-13T15:38:13.539Z,46
2023-02-13T15:39:30.694Z,42
2023-02-13T15:40:37.538Z,43
2023-02-13T15:41:45.318Z,38
2023-02-13T15:42:52.156Z,30
2023-02-13T15:43:59.153Z,31
2023-02-13T15:45:06.806Z,24
2023-02-13T15:46:13.882Z,22
2023-02-13T15:47:28.397Z,21
2023-02-13T15:48:35.575Z,21
2023-02-13T15:49:42.539Z,19
2023-02-13T15:50:49.522Z,18
2023-02-13T15:51:56.394Z,28
2023-02-13T15:53:09.007Z,19
2023-02-13T15:54:15.935Z,18
2023-02-13T15:55:28.858Z,16
2023-02-13T15:56:36.628Z,18
2023-02-13T15:57:45.991Z,23
2023-02-13T15:58:52.918Z,21
2023-02-13T15:59:59.811Z,20
2023-02-13T16:01:07.701Z,21
2023-02-13T16:02:14.760Z,18
2023-02-13T16:03:21.789Z,19
2023-02-13T16:04:28.645Z,25
2023-02-13T16:05:40.892Z,21
2023-02-13T16:06:43.190Z,20
2023-02-13T16:07:50.152Z,23
2023-02-13T16:08:57.072Z,26
2023-02-13T16:10:04.058Z,26
2023-02-13T16:11:18.778Z,31
2023-02-13T16:12:33.645Z,32
2023-02-13T16:13:40.530Z,30
2023-02-13T16:14:54.969Z,28
2023-02-13T16:16:01.962Z,21
2023-02-13T16:17:08.845Z,16
2023-02-13T16:18:19.506Z,15
2023-02-13T16:19:26.598Z,15
2023-02-13T16:20:36.022Z,17
2023-02-13T16:21:42.993Z,15
2023-02-13T16:22:49.860Z,12
2023-02-13T16:23:59.718Z,11
2023-02-13T16:25:08.305Z,46